Philippi, West Virginia
Current Conditions -  °F | °C
As of 5:53 PM on Wednesday 17 Dec 2014 (Local Time) from KCKB Reporting Station
Overcast Overcast  
Wind Chill: 26°   Ceiling: 2600
Heat Index: 33°   Visibility: 10mi
Dew Point: 26°   Wind: 8mph
Humidity: 75%   Direction: 290°WNW
Pressure: 30.12"   Gusts: NA
Location:  39.15°N, 80.04°W
Report Text: KCKB 172253Z 29007KT 10SM FEW018 OVC026 01/M03 A3012 RMK AO2 SLP202 T00061033
Loading
Personal Weather Stations






























Interactive Weather Map New forecast layout! Learn more

10-Day Weather Forecast

Advertisements
Track Severe Weather on mobile